createdAt,value
2018-07-23T05:54:20.302Z,99.90
2018-07-23T05:56:51.538Z,99.90
2018-07-23T05:59:33.864Z,99.90
2018-07-23T06:02:16.772Z,99.90
2018-07-23T06:05:03.296Z,99.90
2018-07-23T06:07:38.525Z,99.90
2018-07-23T06:10:10.099Z,99.90
2018-07-23T06:12:42.907Z,99.90
2018-07-23T06:15:15.528Z,99.90
2018-07-23T06:17:46.535Z,99.90
2018-07-23T06:20:19.719Z,99.90
2018-07-23T06:22:54.108Z,99.90
2018-07-23T06:25:24.820Z,99.90
2018-07-23T06:27:56.309Z,99.90
2018-07-23T06:30:27.434Z,99.90
2018-07-23T06:32:58.058Z,99.90
2018-07-23T06:35:34.205Z,99.90
2018-07-23T06:38:07.454Z,99.90
2018-07-23T06:40:41.367Z,99.90
2018-07-23T06:43:11.927Z,99.90
2018-07-23T06:45:54.210Z,99.90
2018-07-23T06:48:29.001Z,99.90
2018-07-23T06:50:58.208Z,99.00
2018-07-23T06:53:33.616Z,98.70
2018-07-23T06:56:06.158Z,98.30
2018-07-23T06:58:45.508Z,98.00
2018-07-23T07:01:26.033Z,97.50
2018-07-23T07:04:07.712Z,97.20
2018-07-23T07:06:46.400Z,96.90
2018-07-23T07:09:16.983Z,96.70
2018-07-23T07:11:46.848Z,96.30
2018-07-23T07:14:15.616Z,96.00
2018-07-23T07:16:44.790Z,96.00
2018-07-23T07:19:15.832Z,95.80
2018-07-23T07:21:45.769Z,95.80
2018-07-23T07:24:14.442Z,95.50
2018-07-23T07:26:45.639Z,95.20
2018-07-23T07:29:16.090Z,95.00
2018-07-23T07:31:46.171Z,94.70
2018-07-23T07:34:15.612Z,94.40
2018-07-23T07:36:44.458Z,94.40
2018-07-23T07:39:15.051Z,93.90
2018-07-23T07:41:45.418Z,93.40
2018-07-23T07:44:14.794Z,92.90
2018-07-23T07:46:43.645Z,92.60
2018-07-23T07:49:13.804Z,92.70
2018-07-23T07:51:43.236Z,92.80
2018-07-23T07:54:12.596Z,92.30
2018-07-23T07:56:47.132Z,92.10
2018-07-23T07:59:15.925Z,91.90
2018-07-23T08:01:46.222Z,91.70
2018-07-23T08:04:14.977Z,91.50
2018-07-23T08:06:44.468Z,91.00
2018-07-23T08:09:14.178Z,90.40
2018-07-23T08:11:43.949Z,90.30
2018-07-23T08:14:13.604Z,90.20
2018-07-23T08:16:43.835Z,90.10
2018-07-23T08:19:13.278Z,90.20
2018-07-23T08:21:42.166Z,88.80
2018-07-23T08:24:11.345Z,88.20
2018-07-23T08:26:42.138Z,87.60
2018-07-23T08:29:10.939Z,85.90
2018-07-23T08:31:40.485Z,86.00
2018-07-23T08:34:10.736Z,86.20
2018-07-23T08:36:40.234Z,85.70
2018-07-23T08:39:10.646Z,84.30
2018-07-23T08:41:40.275Z,83.70
2018-07-23T08:44:09.754Z,82.90
2018-07-23T08:46:38.341Z,82.30
2018-07-23T08:49:06.953Z,80.70
2018-07-23T08:51:35.475Z,80.50
2018-07-23T08:54:03.995Z,80.10
2018-07-23T08:56:32.522Z,78.40
2018-07-23T08:59:01.191Z,77.80
2018-07-23T09:01:29.688Z,77.40
2018-07-23T09:03:59.561Z,77.50
2018-07-23T09:06:28.062Z,75.80
2018-07-23T09:08:56.718Z,74.40
2018-07-23T09:11:25.908Z,74.70
2018-07-23T09:13:54.514Z,75.40
2018-07-23T09:16:23.017Z,75.30
2018-07-23T09:18:51.688Z,74.80
2018-07-23T09:21:20.205Z,72.80
2018-07-23T09:23:48.690Z,70.30
2018-07-23T09:26:17.340Z,69.50
2018-07-23T09:28:45.853Z,68.70
2018-07-23T09:31:14.454Z,67.70
2018-07-23T09:33:42.975Z,66.50
2018-07-23T09:36:11.582Z,66.50
2018-07-23T09:38:40.205Z,64.70
2018-07-23T09:41:09.267Z,63.30
2018-07-23T09:43:37.773Z,63.20
2018-07-23T09:46:07.312Z,63.20
2018-07-23T09:48:36.459Z,62.10
2018-07-23T09:51:04.993Z,61.90
2018-07-23T09:53:33.510Z,62.00
2018-07-23T09:56:02.008Z,62.90
2018-07-23T09:58:30.713Z,63.70
2018-07-23T10:01:04.470Z,64.10
2018-07-23T10:03:33.172Z,63.70
2018-07-23T10:06:01.614Z,62.70
2018-07-23T10:08:30.227Z,63.40
2018-07-23T10:10:58.849Z,63.50
2018-07-23T10:13:27.415Z,63.10
2018-07-23T10:15:55.961Z,62.70
2018-07-23T10:18:24.664Z,62.80
2018-07-23T10:20:53.157Z,62.60
2018-07-23T10:23:21.674Z,62.00
2018-07-23T10:25:50.463Z,60.60
2018-07-23T10:28:19.097Z,61.10
2018-07-23T10:30:47.634Z,61.10
2018-07-23T10:33:16.218Z,61.20
2018-07-23T10:35:44.952Z,61.50
2018-07-23T10:38:15.196Z,61.70
2018-07-23T10:40:45.114Z,61.40
2018-07-23T10:43:13.799Z,60.00
2018-07-23T10:45:43.688Z,60.00
2018-07-23T10:48:16.821Z,60.00
2018-07-23T10:50:46.114Z,61.10
2018-07-23T10:53:14.718Z,60.90
2018-07-23T10:55:43.317Z,60.40
2018-07-23T10:58:11.849Z,60.40
2018-07-23T11:00:40.368Z,59.50
2018-07-23T11:03:08.867Z,59.60
2018-07-23T11:05:37.412Z,59.50
2018-07-23T11:08:06.046Z,59.70
2018-07-23T11:13:02.934Z,59.20
2018-07-23T11:15:31.448Z,59.20
2018-07-23T11:18:00.022Z,58.80
2018-07-23T11:20:28.592Z,59.00
2018-07-23T11:23:00.611Z,58.70
2018-07-23T11:25:41.037Z,58.60
2018-07-23T11:28:01.254Z,58.50
2018-07-23T11:30:29.758Z,58.10
2018-07-23T11:32:58.396Z,57.60
2018-07-23T11:35:26.892Z,56.60
2018-07-23T11:37:57.284Z,56.40
2018-07-23T11:40:26.490Z,57.00
2018-07-23T11:42:55.734Z,56.60
2018-07-23T11:45:24.253Z,56.40
2018-07-23T11:47:52.838Z,56.00
2018-07-23T11:50:21.453Z,55.40
2018-07-23T11:52:50.030Z,54.60
2018-07-23T11:55:18.574Z,54.20
2018-07-23T11:57:47.158Z,53.90
2018-07-23T12:00:15.686Z,53.10
2018-07-23T12:02:44.220Z,53.00
2018-07-23T12:05:12.717Z,53.00
2018-07-23T12:07:41.864Z,53.30
2018-07-23T12:10:10.394Z,53.00
2018-07-23T12:15:12.871Z,52.30
2018-07-23T12:17:41.494Z,52.50
2018-07-23T12:20:10.215Z,52.90
2018-07-23T12:22:38.765Z,52.90
2018-07-23T12:25:07.313Z,53.20
2018-07-23T12:27:35.838Z,52.70
2018-07-23T12:30:04.580Z,52.20
2018-07-23T12:32:33.258Z,51.00
2018-07-23T12:35:01.639Z,50.80
2018-07-23T12:37:30.187Z,50.50
2018-07-23T12:39:58.699Z,50.30
2018-07-23T12:42:27.226Z,50.90
2018-07-23T12:44:55.737Z,50.80
2018-07-23T12:47:25.104Z,50.50
2018-07-23T12:49:53.617Z,50.60
2018-07-23T12:52:22.186Z,50.40
2018-07-23T12:54:50.719Z,50.00
2018-07-23T12:57:19.287Z,48.90
2018-07-23T12:59:47.805Z,48.00
2018-07-23T13:02:16.320Z,47.80
2018-07-23T13:04:44.838Z,48.10
2018-07-23T13:07:13.491Z,48.10
2018-07-23T13:09:42.857Z,48.50
2018-07-23T13:12:11.432Z,48.50
2018-07-23T13:14:39.912Z,48.40
2018-07-23T13:17:09.157Z,48.40
2018-07-23T13:19:37.695Z,48.10
2018-07-23T13:22:06.197Z,47.40
2018-07-23T13:24:34.718Z,48.00
2018-07-23T13:27:03.835Z,47.50
2018-07-23T13:29:32.361Z,47.40
2018-07-23T13:32:01.167Z,46.80
2018-07-23T13:34:29.712Z,46.10
2018-07-23T13:39:14.337Z,44.30
2018-07-23T13:44:24.871Z,42.40
2018-07-23T13:46:53.379Z,42.50
2018-07-23T13:49:21.922Z,40.40
2018-07-23T13:51:50.413Z,36.50
2018-07-23T13:54:18.943Z,33.10
2018-07-23T13:56:47.470Z,27.70
2018-07-23T13:59:16.083Z,27.10
2018-07-23T14:01:44.616Z,24.00
2018-07-23T14:04:13.170Z,21.40
2018-07-23T14:06:42.190Z,19.40
2018-07-23T14:09:12.026Z,17.80
2018-07-23T14:11:41.542Z,16.50
2018-07-23T14:14:10.118Z,15.60
2018-07-23T14:16:38.617Z,14.30
2018-07-23T14:19:07.223Z,12.80
2018-07-23T14:21:35.875Z,12.80
2018-07-23T14:24:04.319Z,12.10
2018-07-23T14:26:33.345Z,11.80
2018-07-23T14:29:01.963Z,11.40
2018-07-23T14:31:30.466Z,11.20
2018-07-23T14:33:58.985Z,10.90
2018-07-23T14:36:27.518Z,10.50
2018-07-23T14:38:56.100Z,10.40
2018-07-23T14:41:24.663Z,10.30
2018-07-23T14:43:53.186Z,10.00
2018-07-23T14:46:21.766Z,9.80
2018-07-23T14:48:50.285Z,10.40
2018-07-23T14:51:19.350Z,9.60
2018-07-23T14:53:47.857Z,9.50
2018-07-23T14:56:16.728Z,10.20
2018-07-23T14:58:45.230Z,9.50
2018-07-23T15:01:13.708Z,9.50
2018-07-23T15:03:42.996Z,9.40
2018-07-23T15:06:13.915Z,9.40
2018-07-23T15:08:42.438Z,9.20
2018-07-23T15:11:10.912Z,10.20
2018-07-23T15:13:39.458Z,11.50
2018-07-23T15:16:08.001Z,11.60
2018-07-23T15:18:36.605Z,11.40
2018-07-23T15:21:05.543Z,10.90
2018-07-23T15:23:34.683Z,10.80
2018-07-23T15:26:03.309Z,10.70
2018-07-23T15:28:33.237Z,10.50
2018-07-23T15:31:01.811Z,10.10
2018-07-23T15:36:00.310Z,10.20
2018-07-23T15:38:29.146Z,10.40
2018-07-23T15:40:57.907Z,10.30
2018-07-23T15:43:27.205Z,10.30
2018-07-23T15:45:56.287Z,10.20
2018-07-23T15:48:25.008Z,10.20
2018-07-23T15:50:53.868Z,10.90
2018-07-23T15:53:22.623Z,11.70
2018-07-23T15:55:51.345Z,11.90
2018-07-23T15:58:19.979Z,12.80
2018-07-23T16:00:48.782Z,13.90
2018-07-23T16:03:18.394Z,13.70
2018-07-23T16:05:47.023Z,12.60
2018-07-23T16:08:16.428Z,12.20
2018-07-23T16:10:45.055Z,11.90
2018-07-23T16:13:13.722Z,11.60
2018-07-23T16:15:42.303Z,11.30
2018-07-23T16:18:11.821Z,11.20
2018-07-23T16:20:40.437Z,11.10
2018-07-23T16:23:09.030Z,11.60
2018-07-23T16:25:37.607Z,10.80
2018-07-23T16:28:06.365Z,10.80
2018-07-23T16:30:34.972Z,10.90
2018-07-23T16:33:04.530Z,10.80
2018-07-23T16:35:36.512Z,11.00
2018-07-23T16:38:05.228Z,11.00
2018-07-23T16:40:33.876Z,11.00
2018-07-23T16:43:07.933Z,11.10
2018-07-23T16:45:37.446Z,11.40
2018-07-23T16:48:07.565Z,11.60
2018-07-23T16:50:36.132Z,11.70
2018-07-23T16:53:04.699Z,11.90
2018-07-23T16:55:33.623Z,11.90
2018-07-23T16:58:03.230Z,11.80
2018-07-23T17:00:35.844Z,12.10
2018-07-23T17:03:05.777Z,12.30
2018-07-23T17:05:34.613Z,13.00
2018-07-23T17:08:03.281Z,14.30
2018-07-23T17:10:32.062Z,16.30
2018-07-23T17:13:01.222Z,16.90
2018-07-23T17:15:30.097Z,17.70
2018-07-23T17:17:58.749Z,19.10
2018-07-23T17:20:27.313Z,19.80
2018-07-23T17:22:55.879Z,21.30
2018-07-23T17:27:53.495Z,23.20
2018-07-23T17:30:22.656Z,24.30
2018-07-23T17:32:52.329Z,25.50
2018-07-23T17:35:20.833Z,26.20
2018-07-23T17:37:50.165Z,27.00
2018-07-23T17:40:18.761Z,28.10
2018-07-23T17:42:47.351Z,28.90
2018-07-23T17:45:15.975Z,29.50
2018-07-23T17:47:44.828Z,30.00
2018-07-23T17:50:13.462Z,30.50
2018-07-23T17:52:42.036Z,31.20
2018-07-23T17:55:10.642Z,31.50
2018-07-23T17:57:39.174Z,32.50
2018-07-23T18:00:07.841Z,32.80
2018-07-23T18:02:39.207Z,33.40
2018-07-23T18:05:07.934Z,33.90
2018-07-23T18:07:36.478Z,34.10
2018-07-23T18:10:05.124Z,35.00
2018-07-23T18:12:34.344Z,34.90
2018-07-23T18:15:04.214Z,35.40
2018-07-23T18:17:32.807Z,35.40
2018-07-23T18:20:03.057Z,36.50
2018-07-23T18:22:32.205Z,37.00
2018-07-23T18:25:01.439Z,37.50
2018-07-23T18:27:29.915Z,38.40
2018-07-23T18:29:58.469Z,40.90
2018-07-23T18:32:27.061Z,42.00
2018-07-23T18:34:55.619Z,43.00
2018-07-23T18:37:24.305Z,43.10
2018-07-23T18:39:52.869Z,44.40
2018-07-23T18:42:22.473Z,44.40
2018-07-23T18:44:51.023Z,44.60
2018-07-23T18:47:19.566Z,45.50
2018-07-23T18:49:54.812Z,46.10
2018-07-23T18:52:25.585Z,46.20
2018-07-23T18:54:55.788Z,46.50
2018-07-23T18:57:25.894Z,46.70
2018-07-23T18:59:56.364Z,46.60
2018-07-23T19:02:24.923Z,48.20
2018-07-23T19:04:53.457Z,47.00
2018-07-23T19:07:22.080Z,46.50
2018-07-23T19:09:51.701Z,46.90
2018-07-23T19:12:22.739Z,48.40
2018-07-23T19:14:51.269Z,48.70
2018-07-23T19:17:19.857Z,48.10
2018-07-23T19:19:49.307Z,48.20
2018-07-23T19:22:18.727Z,49.30
2018-07-23T19:24:50.164Z,49.10
2018-07-23T19:27:18.848Z,50.10
2018-07-23T19:32:18.291Z,51.30
2018-07-23T19:34:47.003Z,51.90
2018-07-23T19:37:17.695Z,52.10
2018-07-23T19:39:47.361Z,52.50
2018-07-23T19:44:51.749Z,53.80
2018-07-23T19:47:21.152Z,54.70
2018-07-23T19:49:50.410Z,54.90
2018-07-23T19:52:20.837Z,55.40
2018-07-23T19:54:49.902Z,55.90
2018-07-23T19:57:20.101Z,56.30
2018-07-23T19:59:48.600Z,56.70
2018-07-23T20:02:18.183Z,56.80
2018-07-23T20:04:47.486Z,57.40
2018-07-23T20:07:16.429Z,58.50
2018-07-23T20:09:44.984Z,58.60
2018-07-23T20:12:13.601Z,58.90
2018-07-23T20:14:42.130Z,59.30
2018-07-23T20:17:11.301Z,59.60
2018-07-23T20:19:40.692Z,60.00
2018-07-23T20:22:10.172Z,60.40
2018-07-23T20:24:38.699Z,60.50
2018-07-23T20:27:07.887Z,61.00
2018-07-23T20:29:36.508Z,61.70
2018-07-23T20:32:05.053Z,61.80
2018-07-23T20:34:34.418Z,62.10
2018-07-23T20:37:04.082Z,63.00
2018-07-23T20:39:33.828Z,63.60
2018-07-23T20:42:02.612Z,64.00
2018-07-23T20:44:31.215Z,63.90
2018-07-23T20:47:00.640Z,64.80
2018-07-23T20:49:30.108Z,65.20
2018-07-23T20:51:58.641Z,65.50
2018-07-23T20:54:27.119Z,66.20
2018-07-23T20:56:55.618Z,66.70
2018-07-23T20:59:24.227Z,68.30
2018-07-23T21:01:52.758Z,68.00
2018-07-23T21:04:21.310Z,68.60
2018-07-23T21:06:49.902Z,69.30
2018-07-23T21:09:18.454Z,69.70
2018-07-23T21:11:46.934Z,70.30
2018-07-23T21:14:15.510Z,71.10
2018-07-23T21:16:44.912Z,72.10
2018-07-23T21:19:13.514Z,73.00
2018-07-23T21:21:42.057Z,73.80
2018-07-23T21:24:10.553Z,74.80
2018-07-23T21:29:07.338Z,76.60
2018-07-23T21:31:35.821Z,77.10
2018-07-23T21:34:04.328Z,77.60
2018-07-23T21:36:32.822Z,77.70
